Niantic, CT (06357)

9:54 PM EST on December 05, 2016 (GMT -0500)
Laurel Hills | | Change Station

Elev 114 ft 41.35 °N, 72.21 °W | Updated 13 seconds ago

Scattered Clouds
Scattered Clouds
33.2 °F
Feels Like 33 °F
N
0.0
Wind Variable Wind from NW
Gusts 0.0 mph

Today
High -- | Low -- °F
--% Chance of Precip.
Yesterday
High -- | Low -- °F
Precip. -- in
Pressure 30.03 in
Visibility 10.0 miles
Clouds Scattered Clouds 6000 ft
Windchill 33 °F
Dew Point 32 °F
Humidity 95%
Rainfall in
Snow Depth Not available.
6:59 AM 4:19 PM
Waxing Crescent, 37% visible
METAR KGON 060156Z 29008KT 10SM SCT060 06/01 A3003 RMK AO2 SLP167 T00560011
Pressure 30.03 in
Visibility 10.0 miles
Clouds Scattered Clouds 6000 ft
Windchill 33 °F
Dew Point 32 °F
Humidity 95%
Rainfall in
Snow Depth Not available.
6:59 AM 4:19 PM
Waxing Crescent, 37% visible
METAR KGON 060156Z 29008KT 10SM SCT060 06/01 A3003 RMK AO2 SLP167 T00560011

10-Day Weather Forecast

Almanac

Astronomy

Dec. 05, 2016 Rise Set
Actual Time
Civil Twilight
Nautical Twilight
Astronomical Twilight
Moon
Length of Visible Light
Length of Day
Tomorrow will be .
, % of the Moon is Illuminated

Today's Extremes

State Highs State Lows

Community

WunderPhotos

Upload Photos

1,955,908 photos uploaded!

WunderBlog® & News

Nearby

Air Quality

  Air Quality AQ Index Pollutant
Not available.

Snow Depth

Station Depth Elevation

Earthquake Activity

City Distance Mag. Time & Date
Minimum magnitude displayed is 2.5.

Coastal Water Temperatures

Place Temperature

Stations

Nearby Weather Stations

Station Location Temp. Windchill Dew Point Humidity Wind Precip. Elev Updated Type
                   

Watches & Warnings

There are currently no watches in effect.